sensor_id;sensor_type;location;lat;lon;timestamp;temperature;humidity
11573;DHT22;5842;52.426;4.886;2022-11-14T00:00:24;4.70;99.90
11573;DHT22;5842;52.426;4.886;2022-11-14T00:02:52;4.70;99.90
11573;DHT22;5842;52.426;4.886;2022-11-14T00:05:21;4.70;99.90
11573;DHT22;5842;52.426;4.886;2022-11-14T00:07:51;4.70;99.90
11573;DHT22;5842;52.426;4.886;2022-11-14T00:10:18;4.60;99.90
11573;DHT22;5842;52.426;4.886;2022-11-14T00:12:47;4.50;99.90
11573;DHT22;5842;52.426;4.886;2022-11-14T00:15:14;4.50;99.90
11573;DHT22;5842;52.426;4.886;2022-11-14T00:17:41;4.50;99.90
11573;DHT22;5842;52.426;4.886;2022-11-14T00:20:10;4.40;99.90
11573;DHT22;5842;52.426;4.886;2022-11-14T00:22:38;4.40;99.90
11573;DHT22;5842;52.426;4.886;2022-11-14T00:25:05;4.30;99.90
11573;DHT22;5842;52.426;4.886;2022-11-14T00:27:32;4.30;99.90
11573;DHT22;5842;52.426;4.886;2022-11-14T00:30:01;4.40;99.90
11573;DHT22;5842;52.426;4.886;2022-11-14T00:32:28;4.40;99.90
11573;DHT22;5842;52.426;4.886;2022-11-14T00:34:55;4.40;99.90
11573;DHT22;5842;52.426;4.886;2022-11-14T00:37:22;4.40;99.90
11573;DHT22;5842;52.426;4.886;2022-11-14T00:39:49;4.40;99.90
11573;DHT22;5842;52.426;4.886;2022-11-14T00:42:16;4.40;99.90
11573;DHT22;5842;52.426;4.886;2022-11-14T00:44:43;4.40;99.90
11573;DHT22;5842;52.426;4.886;2022-11-14T00:47:12;4.50;99.90
11573;DHT22;5842;52.426;4.886;2022-11-14T00:49:39;4.50;99.90
11573;DHT22;5842;52.426;4.886;2022-11-14T00:52:06;4.50;99.90
11573;DHT22;5842;52.426;4.886;2022-11-14T00:54:33;4.60;99.90
11573;DHT22;5842;52.426;4.886;2022-11-14T00:57:00;4.50;99.90
11573;DHT22;5842;52.426;4.886;2022-11-14T00:59:27;4.50;99.90
11573;DHT22;5842;52.426;4.886;2022-11-14T01:01:54;4.50;99.90
11573;DHT22;5842;52.426;4.886;2022-11-14T01:04:22;4.50;99.90
11573;DHT22;5842;52.426;4.886;2022-11-14T01:06:49;4.40;99.90
11573;DHT22;5842;52.426;4.886;2022-11-14T01:09:17;4.40;99.90
11573;DHT22;5842;52.426;4.886;2022-11-14T01:11:44;4.40;99.90
11573;DHT22;5842;52.426;4.886;2022-11-14T01:14:11;4.30;99.90
11573;DHT22;5842;52.426;4.886;2022-11-14T01:19:05;4.20;99.90
11573;DHT22;5842;52.426;4.886;2022-11-14T01:21:35;4.20;99.90
11573;DHT22;5842;52.426;4.886;2022-11-14T01:24:05;4.20;99.90
11573;DHT22;5842;52.426;4.886;2022-11-14T01:26:32;4.20;99.90
11573;DHT22;5842;52.426;4.886;2022-11-14T01:28:59;4.10;99.90
11573;DHT22;5842;52.426;4.886;2022-11-14T01:31:26;4.10;99.90
11573;DHT22;5842;52.426;4.886;2022-11-14T01:33:54;4.10;99.90
11573;DHT22;5842;52.426;4.886;2022-11-14T01:36:21;4.10;99.90
11573;DHT22;5842;52.426;4.886;2022-11-14T01:38:53;4.10;99.90
11573;DHT22;5842;52.426;4.886;2022-11-14T01:41:20;4.10;99.90
11573;DHT22;5842;52.426;4.886;2022-11-14T01:43:47;4.10;99.90
11573;DHT22;5842;52.426;4.886;2022-11-14T01:46:19;4.10;99.90
11573;DHT22;5842;52.426;4.886;2022-11-14T01:48:51;4.00;99.90
11573;DHT22;5842;52.426;4.886;2022-11-14T01:51:26;4.00;99.90
11573;DHT22;5842;52.426;4.886;2022-11-14T01:53:58;3.90;99.90
11573;DHT22;5842;52.426;4.886;2022-11-14T01:56:30;3.90;99.90
11573;DHT22;5842;52.426;4.886;2022-11-14T01:59:02;3.80;99.90
11573;DHT22;5842;52.426;4.886;2022-11-14T02:01:33;3.80;99.90
11573;DHT22;5842;52.426;4.886;2022-11-14T02:04:01;3.80;99.90
11573;DHT22;5842;52.426;4.886;2022-11-14T02:06:31;3.80;99.90
11573;DHT22;5842;52.426;4.886;2022-11-14T02:09:03;3.80;99.90
11573;DHT22;5842;52.426;4.886;2022-11-14T02:11:34;3.80;99.90
11573;DHT22;5842;52.426;4.886;2022-11-14T02:14:02;3.70;99.90
11573;DHT22;5842;52.426;4.886;2022-11-14T02:16:29;3.70;99.90
11573;DHT22;5842;52.426;4.886;2022-11-14T02:18:56;3.60;99.90
11573;DHT22;5842;52.426;4.886;2022-11-14T02:21:25;3.60;99.90
11573;DHT22;5842;52.426;4.886;2022-11-14T02:23:52;3.50;99.90
11573;DHT22;5842;52.426;4.886;2022-11-14T02:28:48;3.50;99.90
11573;DHT22;5842;52.426;4.886;2022-11-14T02:33:43;3.50;99.90
11573;DHT22;5842;52.426;4.886;2022-11-14T02:36:10;3.20;99.90
11573;DHT22;5842;52.426;4.886;2022-11-14T02:38:39;3.50;99.90
11573;DHT22;5842;52.426;4.886;2022-11-14T02:41:06;3.50;99.90
11573;DHT22;5842;52.426;4.886;2022-11-14T02:43:34;3.50;99.90
11573;DHT22;5842;52.426;4.886;2022-11-14T02:46:01;3.50;99.90
11573;DHT22;5842;52.426;4.886;2022-11-14T02:48:28;3.60;99.90
11573;DHT22;5842;52.426;4.886;2022-11-14T02:50:55;3.60;99.90
11573;DHT22;5842;52.426;4.886;2022-11-14T02:53:22;3.60;99.90
11573;DHT22;5842;52.426;4.886;2022-11-14T02:55:50;3.60;99.90
11573;DHT22;5842;52.426;4.886;2022-11-14T02:58:18;3.50;99.90
11573;DHT22;5842;52.426;4.886;2022-11-14T03:00:45;3.50;99.90
11573;DHT22;5842;52.426;4.886;2022-11-14T03:03:12;3.50;99.90
11573;DHT22;5842;52.426;4.886;2022-11-14T03:05:39;3.50;99.90
11573;DHT22;5842;52.426;4.886;2022-11-14T03:08:06;3.50;99.90
11573;DHT22;5842;52.426;4.886;2022-11-14T03:10:33;3.60;99.90
11573;DHT22;5842;52.426;4.886;2022-11-14T03:13:02;3.60;99.90
11573;DHT22;5842;52.426;4.886;2022-11-14T03:15:29;3.60;99.90
11573;DHT22;5842;52.426;4.886;2022-11-14T03:17:56;3.70;99.90
11573;DHT22;5842;52.426;4.886;2022-11-14T03:20:23;3.70;99.90
11573;DHT22;5842;52.426;4.886;2022-11-14T03:22:50;3.60;99.90
11573;DHT22;5842;52.426;4.886;2022-11-14T03:25:17;3.60;99.90
11573;DHT22;5842;52.426;4.886;2022-11-14T03:27:44;3.60;99.90
11573;DHT22;5842;52.426;4.886;2022-11-14T03:30:13;3.60;99.90
11573;DHT22;5842;52.426;4.886;2022-11-14T03:32:40;3.60;99.90
11573;DHT22;5842;52.426;4.886;2022-11-14T03:35:08;3.60;99.90
11573;DHT22;5842;52.426;4.886;2022-11-14T03:37:35;3.50;99.90
11573;DHT22;5842;52.426;4.886;2022-11-14T03:40:05;3.60;99.90
11573;DHT22;5842;52.426;4.886;2022-11-14T03:42:34;3.60;99.90
11573;DHT22;5842;52.426;4.886;2022-11-14T03:45:02;3.60;99.90
11573;DHT22;5842;52.426;4.886;2022-11-14T03:47:30;3.50;99.90
11573;DHT22;5842;52.426;4.886;2022-11-14T03:49:58;3.50;99.90
11573;DHT22;5842;52.426;4.886;2022-11-14T03:52:25;3.50;99.90
11573;DHT22;5842;52.426;4.886;2022-11-14T03:54:52;3.60;99.90
11573;DHT22;5842;52.426;4.886;2022-11-14T03:57:19;3.50;99.90
11573;DHT22;5842;52.426;4.886;2022-11-14T03:59:46;3.50;99.90
11573;DHT22;5842;52.426;4.886;2022-11-14T04:02:13;3.40;99.90
11573;DHT22;5842;52.426;4.886;2022-11-14T04:04:41;3.40;99.90
11573;DHT22;5842;52.426;4.886;2022-11-14T04:07:08;3.40;99.90
11573;DHT22;5842;52.426;4.886;2022-11-14T04:09:35;3.30;99.90
11573;DHT22;5842;52.426;4.886;2022-11-14T04:12:03;3.30;99.90
11573;DHT22;5842;52.426;4.886;2022-11-14T04:14:30;3.20;99.90
11573;DHT22;5842;52.426;4.886;2022-11-14T04:16:57;3.10;99.90
11573;DHT22;5842;52.426;4.886;2022-11-14T04:19:24;3.10;99.90
11573;DHT22;5842;52.426;4.886;2022-11-14T04:21:53;3.10;99.90
11573;DHT22;5842;52.426;4.886;2022-11-14T04:24:20;3.00;99.90
11573;DHT22;5842;52.426;4.886;2022-11-14T04:26:47;3.00;99.90
11573;DHT22;5842;52.426;4.886;2022-11-14T04:31:41;2.90;99.90
11573;DHT22;5842;52.426;4.886;2022-11-14T04:34:08;2.80;99.90
11573;DHT22;5842;52.426;4.886;2022-11-14T04:36:35;2.80;99.90
11573;DHT22;5842;52.426;4.886;2022-11-14T04:39:04;2.70;99.90
11573;DHT22;5842;52.426;4.886;2022-11-14T04:41:31;2.60;99.90
11573;DHT22;5842;52.426;4.886;2022-11-14T04:43:58;2.60;99.90
11573;DHT22;5842;52.426;4.886;2022-11-14T04:46:25;2.50;99.90
11573;DHT22;5842;52.426;4.886;2022-11-14T04:48:52;2.50;99.90
11573;DHT22;5842;52.426;4.886;2022-11-14T04:53:47;2.40;99.90
11573;DHT22;5842;52.426;4.886;2022-11-14T04:56:15;2.40;99.90
11573;DHT22;5842;52.426;4.886;2022-11-14T04:58:42;2.40;99.90
11573;DHT22;5842;52.426;4.886;2022-11-14T05:01:10;2.50;99.90
11573;DHT22;5842;52.426;4.886;2022-11-14T05:03:39;2.40;99.90
11573;DHT22;5842;52.426;4.886;2022-11-14T05:06:06;2.40;99.90
11573;DHT22;5842;52.426;4.886;2022-11-14T05:08:33;2.30;99.90
11573;DHT22;5842;52.426;4.886;2022-11-14T05:11:00;2.30;99.90
11573;DHT22;5842;52.426;4.886;2022-11-14T05:13:29;2.20;99.90
11573;DHT22;5842;52.426;4.886;2022-11-14T05:15:57;2.20;99.90
11573;DHT22;5842;52.426;4.886;2022-11-14T05:18:24;2.20;99.90
11573;DHT22;5842;52.426;4.886;2022-11-14T05:20:51;2.20;99.90
11573;DHT22;5842;52.426;4.886;2022-11-14T05:23:18;2.10;99.90
11573;DHT22;5842;52.426;4.886;2022-11-14T05:25:46;2.10;99.90
11573;DHT22;5842;52.426;4.886;2022-11-14T05:28:13;2.10;99.90
11573;DHT22;5842;52.426;4.886;2022-11-14T05:30:41;2.00;99.90
11573;DHT22;5842;52.426;4.886;2022-11-14T05:33:08;2.00;99.90
11573;DHT22;5842;52.426;4.886;2022-11-14T05:35:35;1.90;99.90
11573;DHT22;5842;52.426;4.886;2022-11-14T05:38:02;1.90;99.90
11573;DHT22;5842;52.426;4.886;2022-11-14T05:42:56;2.00;99.90
11573;DHT22;5842;52.426;4.886;2022-11-14T05:45:23;2.10;99.90
11573;DHT22;5842;52.426;4.886;2022-11-14T05:47:52;2.10;99.90
11573;DHT22;5842;52.426;4.886;2022-11-14T05:52:46;2.10;99.90
11573;DHT22;5842;52.426;4.886;2022-11-14T05:55:13;2.10;99.90
11573;DHT22;5842;52.426;4.886;2022-11-14T05:57:40;2.10;99.90
11573;DHT22;5842;52.426;4.886;2022-11-14T06:00:07;2.10;99.90
11573;DHT22;5842;52.426;4.886;2022-11-14T06:02:34;2.00;99.90
11573;DHT22;5842;52.426;4.886;2022-11-14T06:05:03;2.00;99.90
11573;DHT22;5842;52.426;4.886;2022-11-14T06:07:30;2.10;99.90
11573;DHT22;5842;52.426;4.886;2022-11-14T06:12:24;2.00;99.90
11573;DHT22;5842;52.426;4.886;2022-11-14T06:14:51;2.10;99.90
11573;DHT22;5842;52.426;4.886;2022-11-14T06:17:18;2.10;99.90
11573;DHT22;5842;52.426;4.886;2022-11-14T06:19:45;2.10;99.90
11573;DHT22;5842;52.426;4.886;2022-11-14T06:22:13;2.10;99.90
11573;DHT22;5842;52.426;4.886;2022-11-14T06:24:40;2.10;99.90
11573;DHT22;5842;52.426;4.886;2022-11-14T06:27:07;2.10;99.90
11573;DHT22;5842;52.426;4.886;2022-11-14T06:29:33;2.10;99.90
11573;DHT22;5842;52.426;4.886;2022-11-14T06:32:00;2.10;99.90
11573;DHT22;5842;52.426;4.886;2022-11-14T06:34:27;2.00;99.90
11573;DHT22;5842;52.426;4.886;2022-11-14T06:36:54;2.10;99.90
11573;DHT22;5842;52.426;4.886;2022-11-14T06:39:22;2.00;99.90
11573;DHT22;5842;52.426;4.886;2022-11-14T06:41:49;2.00;99.90
11573;DHT22;5842;52.426;4.886;2022-11-14T06:44:16;2.00;99.90
11573;DHT22;5842;52.426;4.886;2022-11-14T06:46:43;2.00;99.90
11573;DHT22;5842;52.426;4.886;2022-11-14T06:49:10;1.90;99.90
11573;DHT22;5842;52.426;4.886;2022-11-14T06:51:37;2.00;99.90
11573;DHT22;5842;52.426;4.886;2022-11-14T06:54:04;2.10;99.90
11573;DHT22;5842;52.426;4.886;2022-11-14T06:56:32;2.10;99.90
11573;DHT22;5842;52.426;4.886;2022-11-14T06:58:59;2.20;99.90
11573;DHT22;5842;52.426;4.886;2022-11-14T07:01:26;2.30;99.90
11573;DHT22;5842;52.426;4.886;2022-11-14T07:03:53;2.30;99.90
11573;DHT22;5842;52.426;4.886;2022-11-14T07:06:22;2.40;99.90
11573;DHT22;5842;52.426;4.886;2022-11-14T07:08:50;2.40;99.90
11573;DHT22;5842;52.426;4.886;2022-11-14T07:11:17;2.40;99.90
11573;DHT22;5842;52.426;4.886;2022-11-14T07:16:19;2.40;99.90
11573;DHT22;5842;52.426;4.886;2022-11-14T07:18:46;2.40;99.90
11573;DHT22;5842;52.426;4.886;2022-11-14T07:38:40;2.40;99.90
11573;DHT22;5842;52.426;4.886;2022-11-14T07:41:09;2.40;99.90
11573;DHT22;5842;52.426;4.886;2022-11-14T07:43:36;2.50;99.90
11573;DHT22;5842;52.426;4.886;2022-11-14T07:46:05;2.60;99.90
11573;DHT22;5842;52.426;4.886;2022-11-14T07:48:33;2.70;99.90
11573;DHT22;5842;52.426;4.886;2022-11-14T07:51:01;2.70;99.90
11573;DHT22;5842;52.426;4.886;2022-11-14T07:53:29;2.80;99.90
11573;DHT22;5842;52.426;4.886;2022-11-14T07:56:02;2.80;99.90
11573;DHT22;5842;52.426;4.886;2022-11-14T07:58:29;2.90;99.90
11573;DHT22;5842;52.426;4.886;2022-11-14T08:00:59;2.90;99.90
11573;DHT22;5842;52.426;4.886;2022-11-14T08:03:26;3.00;99.90
11573;DHT22;5842;52.426;4.886;2022-11-14T08:05:59;3.00;99.90
11573;DHT22;5842;52.426;4.886;2022-11-14T08:08:26;3.10;99.90
11573;DHT22;5842;52.426;4.886;2022-11-14T08:10:56;3.20;99.90
11573;DHT22;5842;52.426;4.886;2022-11-14T08:13:24;3.30;99.90
11573;DHT22;5842;52.426;4.886;2022-11-14T08:15:51;3.40;99.90
11573;DHT22;5842;52.426;4.886;2022-11-14T08:18:19;3.40;99.90
11573;DHT22;5842;52.426;4.886;2022-11-14T08:20:46;3.60;99.90
11573;DHT22;5842;52.426;4.886;2022-11-14T08:23:13;4.50;99.90
11573;DHT22;5842;52.426;4.886;2022-11-14T08:25:40;5.70;99.90
11573;DHT22;5842;52.426;4.886;2022-11-14T08:30:39;7.60;99.90
11573;DHT22;5842;52.426;4.886;2022-11-14T08:35:33;9.20;99.90
11573;DHT22;5842;52.426;4.886;2022-11-14T08:38:00;9.80;99.90
11573;DHT22;5842;52.426;4.886;2022-11-14T08:40:28;10.20;99.90
11573;DHT22;5842;52.426;4.886;2022-11-14T08:42:58;10.20;99.90
11573;DHT22;5842;52.426;4.886;2022-11-14T08:45:26;10.60;99.90
11573;DHT22;5842;52.426;4.886;2022-11-14T08:47:54;10.80;99.90
11573;DHT22;5842;52.426;4.886;2022-11-14T08:50:22;10.80;99.90
11573;DHT22;5842;52.426;4.886;2022-11-14T08:52:49;10.80;99.90
11573;DHT22;5842;52.426;4.886;2022-11-14T08:55:17;10.50;99.90
11573;DHT22;5842;52.426;4.886;2022-11-14T08:57:44;9.90;99.90
11573;DHT22;5842;52.426;4.886;2022-11-14T09:00:12;9.20;99.90
11573;DHT22;5842;52.426;4.886;2022-11-14T09:02:41;8.70;99.90
11573;DHT22;5842;52.426;4.886;2022-11-14T09:05:08;8.20;99.90
11573;DHT22;5842;52.426;4.886;2022-11-14T09:07:35;7.70;99.90
11573;DHT22;5842;52.426;4.886;2022-11-14T09:10:04;7.30;99.90
11573;DHT22;5842;52.426;4.886;2022-11-14T09:12:32;7.10;99.90
11573;DHT22;5842;52.426;4.886;2022-11-14T09:14:59;6.90;99.90
11573;DHT22;5842;52.426;4.886;2022-11-14T09:17:26;6.90;99.90
11573;DHT22;5842;52.426;4.886;2022-11-14T09:19:55;6.80;99.90
11573;DHT22;5842;52.426;4.886;2022-11-14T09:22:22;6.80;99.90
11573;DHT22;5842;52.426;4.886;2022-11-14T09:24:49;6.80;99.90
11573;DHT22;5842;52.426;4.886;2022-11-14T09:27:17;6.80;99.90
11573;DHT22;5842;52.426;4.886;2022-11-14T09:29:44;6.90;99.90
11573;DHT22;5842;52.426;4.886;2022-11-14T09:32:11;7.00;99.90
11573;DHT22;5842;52.426;4.886;2022-11-14T09:34:38;7.00;99.90
11573;DHT22;5842;52.426;4.886;2022-11-14T09:37:09;7.10;99.90
11573;DHT22;5842;52.426;4.886;2022-11-14T09:39:36;7.10;99.90
11573;DHT22;5842;52.426;4.886;2022-11-14T09:42:27;7.20;99.90
11573;DHT22;5842;52.426;4.886;2022-11-14T09:44:57;7.40;99.90
11573;DHT22;5842;52.426;4.886;2022-11-14T09:47:29;7.40;99.90
11573;DHT22;5842;52.426;4.886;2022-11-14T09:50:03;7.50;99.90
11573;DHT22;5842;52.426;4.886;2022-11-14T09:52:35;7.60;99.90
11573;DHT22;5842;52.426;4.886;2022-11-14T09:55:09;7.60;99.90
11573;DHT22;5842;52.426;4.886;2022-11-14T09:57:38;7.70;99.90
11573;DHT22;5842;52.426;4.886;2022-11-14T10:00:14;7.80;99.90
11573;DHT22;5842;52.426;4.886;2022-11-14T10:02:54;7.90;99.90
11573;DHT22;5842;52.426;4.886;2022-11-14T10:05:43;8.00;99.90
11573;DHT22;5842;52.426;4.886;2022-11-14T10:08:43;8.20;99.90
11573;DHT22;5842;52.426;4.886;2022-11-14T10:11:20;8.30;99.90
11573;DHT22;5842;52.426;4.886;2022-11-14T10:14:02;8.40;99.90
11573;DHT22;5842;52.426;4.886;2022-11-14T10:16:37;8.50;99.90
11573;DHT22;5842;52.426;4.886;2022-11-14T10:19:17;8.70;99.90
11573;DHT22;5842;52.426;4.886;2022-11-14T10:21:58;8.70;99.90
11573;DHT22;5842;52.426;4.886;2022-11-14T10:24:50;8.80;99.90
11573;DHT22;5842;52.426;4.886;2022-11-14T10:27:26;8.90;99.90
11573;DHT22;5842;52.426;4.886;2022-11-14T10:30:11;8.90;99.90
11573;DHT22;5842;52.426;4.886;2022-11-14T10:32:53;8.90;99.90
11573;DHT22;5842;52.426;4.886;2022-11-14T10:35:28;8.80;99.90
11573;DHT22;5842;52.426;4.886;2022-11-14T10:38:00;8.90;99.90
11573;DHT22;5842;52.426;4.886;2022-11-14T10:40:34;8.90;99.90
11573;DHT22;5842;52.426;4.886;2022-11-14T10:43:19;8.90;99.90
11573;DHT22;5842;52.426;4.886;2022-11-14T10:45:51;9.00;99.90
11573;DHT22;5842;52.426;4.886;2022-11-14T10:48:28;9.00;99.90
11573;DHT22;5842;52.426;4.886;2022-11-14T10:50:58;9.10;99.90
11573;DHT22;5842;52.426;4.886;2022-11-14T10:53:32;9.10;99.90
11573;DHT22;5842;52.426;4.886;2022-11-14T10:56:07;9.20;99.90
11573;DHT22;5842;52.426;4.886;2022-11-14T10:58:36;9.20;99.90
11573;DHT22;5842;52.426;4.886;2022-11-14T11:01:34;9.20;99.90
11573;DHT22;5842;52.426;4.886;2022-11-14T11:04:12;9.20;99.90
11573;DHT22;5842;52.426;4.886;2022-11-14T11:06:40;9.10;99.90
11573;DHT22;5842;52.426;4.886;2022-11-14T11:09:08;9.10;99.90
11573;DHT22;5842;52.426;4.886;2022-11-14T11:11:58;9.20;99.90
11573;DHT22;5842;52.426;4.886;2022-11-14T11:14:27;9.20;99.90
11573;DHT22;5842;52.426;4.886;2022-11-14T11:17:18;9.30;99.90
11573;DHT22;5842;52.426;4.886;2022-11-14T11:19:46;9.40;99.90
11573;DHT22;5842;52.426;4.886;2022-11-14T11:22:29;9.40;99.90
11573;DHT22;5842;52.426;4.886;2022-11-14T11:24:56;9.40;99.90
11573;DHT22;5842;52.426;4.886;2022-11-14T11:27:26;9.50;99.90
11573;DHT22;5842;52.426;4.886;2022-11-14T11:30:03;9.60;99.90
11573;DHT22;5842;52.426;4.886;2022-11-14T11:32:31;9.60;99.90
11573;DHT22;5842;52.426;4.886;2022-11-14T11:35:00;9.70;99.90
11573;DHT22;5842;52.426;4.886;2022-11-14T11:37:31;9.70;99.90
11573;DHT22;5842;52.426;4.886;2022-11-14T11:40:02;9.80;99.90
11573;DHT22;5842;52.426;4.886;2022-11-14T11:42:35;9.80;99.90
11573;DHT22;5842;52.426;4.886;2022-11-14T11:45:09;9.80;99.90
11573;DHT22;5842;52.426;4.886;2022-11-14T11:47:45;9.90;99.90
11573;DHT22;5842;52.426;4.886;2022-11-14T11:50:15;10.00;99.90
11573;DHT22;5842;52.426;4.886;2022-11-14T11:52:49;10.10;99.90
11573;DHT22;5842;52.426;4.886;2022-11-14T11:55:22;10.10;99.90
11573;DHT22;5842;52.426;4.886;2022-11-14T11:57:58;10.20;99.90
11573;DHT22;5842;52.426;4.886;2022-11-14T12:00:27;10.30;99.90
11573;DHT22;5842;52.426;4.886;2022-11-14T12:02:54;10.30;99.90
11573;DHT22;5842;52.426;4.886;2022-11-14T12:05:27;10.30;99.90
11573;DHT22;5842;52.426;4.886;2022-11-14T12:08:00;10.20;99.90
11573;DHT22;5842;52.426;4.886;2022-11-14T12:10:31;10.30;99.90
11573;DHT22;5842;52.426;4.886;2022-11-14T12:13:46;10.30;99.90
11573;DHT22;5842;52.426;4.886;2022-11-14T12:16:35;10.40;99.90
11573;DHT22;5842;52.426;4.886;2022-11-14T12:19:34;10.30;99.90
11573;DHT22;5842;52.426;4.886;2022-11-14T12:22:28;10.30;99.90
11573;DHT22;5842;52.426;4.886;2022-11-14T12:25:34;10.30;99.90
11573;DHT22;5842;52.426;4.886;2022-11-14T12:28:20;10.30;99.90
11573;DHT22;5842;52.426;4.886;2022-11-14T12:30:56;10.40;99.90
11573;DHT22;5842;52.426;4.886;2022-11-14T12:33:28;10.40;99.90
11573;DHT22;5842;52.426;4.886;2022-11-14T12:35:58;10.40;99.90
11573;DHT22;5842;52.426;4.886;2022-11-14T12:38:31;10.50;99.90
11573;DHT22;5842;52.426;4.886;2022-11-14T12:41:01;10.30;99.90
11573;DHT22;5842;52.426;4.886;2022-11-14T12:43:33;10.20;99.90
11573;DHT22;5842;52.426;4.886;2022-11-14T12:46:05;10.30;99.90
11573;DHT22;5842;52.426;4.886;2022-11-14T12:48:37;10.30;99.90
11573;DHT22;5842;52.426;4.886;2022-11-14T12:53:48;10.30;99.90
11573;DHT22;5842;52.426;4.886;2022-11-14T12:56:44;10.30;99.90
11573;DHT22;5842;52.426;4.886;2022-11-14T12:59:48;10.30;99.90
11573;DHT22;5842;52.426;4.886;2022-11-14T13:02:46;10.30;99.90
11573;DHT22;5842;52.426;4.886;2022-11-14T13:05:44;10.20;99.90
11573;DHT22;5842;52.426;4.886;2022-11-14T13:11:34;10.20;99.90
11573;DHT22;5842;52.426;4.886;2022-11-14T13:14:15;10.20;99.90
11573;DHT22;5842;52.426;4.886;2022-11-14T13:17:09;10.20;99.90
11573;DHT22;5842;52.426;4.886;2022-11-14T13:19:55;10.10;99.90
11573;DHT22;5842;52.426;4.886;2022-11-14T13:22:41;10.00;99.90
11573;DHT22;5842;52.426;4.886;2022-11-14T13:25:17;10.00;99.90
11573;DHT22;5842;52.426;4.886;2022-11-14T13:27:45;9.90;99.90
11573;DHT22;5842;52.426;4.886;2022-11-14T13:30:13;10.00;99.90
11573;DHT22;5842;52.426;4.886;2022-11-14T13:33:01;10.00;99.90
11573;DHT22;5842;52.426;4.886;2022-11-14T13:35:49;10.00;99.90
11573;DHT22;5842;52.426;4.886;2022-11-14T13:44:53;9.90;99.90
11573;DHT22;5842;52.426;4.886;2022-11-14T13:47:55;9.70;99.90
11573;DHT22;5842;52.426;4.886;2022-11-14T13:50:29;9.70;99.90
11573;DHT22;5842;52.426;4.886;2022-11-14T13:52:59;9.60;99.90
11573;DHT22;5842;52.426;4.886;2022-11-14T13:55:38;9.60;99.90
11573;DHT22;5842;52.426;4.886;2022-11-14T13:58:24;9.60;99.90
11573;DHT22;5842;52.426;4.886;2022-11-14T14:01:03;9.50;99.90
11573;DHT22;5842;52.426;4.886;2022-11-14T14:03:48;9.50;99.90
11573;DHT22;5842;52.426;4.886;2022-11-14T14:06:33;9.40;99.90
11573;DHT22;5842;52.426;4.886;2022-11-14T14:09:14;9.40;99.90
11573;DHT22;5842;52.426;4.886;2022-11-14T14:11:58;9.40;99.90
11573;DHT22;5842;52.426;4.886;2022-11-14T14:14:48;9.30;99.90
11573;DHT22;5842;52.426;4.886;2022-11-14T14:17:23;9.30;99.90
11573;DHT22;5842;52.426;4.886;2022-11-14T14:20:02;9.30;99.90
11573;DHT22;5842;52.426;4.886;2022-11-14T14:22:42;9.20;99.90
11573;DHT22;5842;52.426;4.886;2022-11-14T14:25:20;9.10;99.90
11573;DHT22;5842;52.426;4.886;2022-11-14T14:27:58;9.10;99.90
11573;DHT22;5842;52.426;4.886;2022-11-14T14:30:26;8.90;99.90
11573;DHT22;5842;52.426;4.886;2022-11-14T14:33:17;8.90;99.90
11573;DHT22;5842;52.426;4.886;2022-11-14T14:35:49;8.90;99.90
11573;DHT22;5842;52.426;4.886;2022-11-14T14:38:22;8.90;99.90
11573;DHT22;5842;52.426;4.886;2022-11-14T14:40:53;8.80;99.90
11573;DHT22;5842;52.426;4.886;2022-11-14T14:43:29;8.90;99.90
11573;DHT22;5842;52.426;4.886;2022-11-14T14:45:57;8.90;99.90
11573;DHT22;5842;52.426;4.886;2022-11-14T14:48:27;8.90;99.90
11573;DHT22;5842;52.426;4.886;2022-11-14T14:50:56;8.90;99.90
11573;DHT22;5842;52.426;4.886;2022-11-14T14:53:26;9.00;99.90
11573;DHT22;5842;52.426;4.886;2022-11-14T14:55:57;9.00;99.90
11573;DHT22;5842;52.426;4.886;2022-11-14T14:58:26;9.10;99.90
11573;DHT22;5842;52.426;4.886;2022-11-14T15:00:56;9.20;99.90
11573;DHT22;5842;52.426;4.886;2022-11-14T15:03:27;9.20;99.90
11573;DHT22;5842;52.426;4.886;2022-11-14T15:06:01;9.20;99.90
11573;DHT22;5842;52.426;4.886;2022-11-14T15:08:35;9.10;99.90
11573;DHT22;5842;52.426;4.886;2022-11-14T15:11:05;9.10;99.90
11573;DHT22;5842;52.426;4.886;2022-11-14T15:13:33;9.00;99.90
11573;DHT22;5842;52.426;4.886;2022-11-14T15:16:05;9.00;99.90
11573;DHT22;5842;52.426;4.886;2022-11-14T15:18:33;8.90;99.90
11573;DHT22;5842;52.426;4.886;2022-11-14T15:21:15;8.90;99.90
11573;DHT22;5842;52.426;4.886;2022-11-14T15:23:57;8.70;99.90
11573;DHT22;5842;52.426;4.886;2022-11-14T15:26:28;8.60;99.90
11573;DHT22;5842;52.426;4.886;2022-11-14T15:29:10;8.50;99.90
11573;DHT22;5842;52.426;4.886;2022-11-14T15:31:45;8.40;99.90
11573;DHT22;5842;52.426;4.886;2022-11-14T15:34:26;8.40;99.90
11573;DHT22;5842;52.426;4.886;2022-11-14T15:37:16;8.30;99.90
11573;DHT22;5842;52.426;4.886;2022-11-14T15:39:45;8.20;99.90
11573;DHT22;5842;52.426;4.886;2022-11-14T15:42:18;8.10;99.90
11573;DHT22;5842;52.426;4.886;2022-11-14T15:44:47;8.00;99.90
11573;DHT22;5842;52.426;4.886;2022-11-14T15:47:18;8.00;99.90
11573;DHT22;5842;52.426;4.886;2022-11-14T15:50:00;8.00;99.90
11573;DHT22;5842;52.426;4.886;2022-11-14T15:52:31;7.90;99.90
11573;DHT22;5842;52.426;4.886;2022-11-14T15:54:59;7.90;99.90
11573;DHT22;5842;52.426;4.886;2022-11-14T15:57:30;7.80;99.90
11573;DHT22;5842;52.426;4.886;2022-11-14T15:59:57;7.60;99.90
11573;DHT22;5842;52.426;4.886;2022-11-14T16:02:28;7.40;99.90
11573;DHT22;5842;52.426;4.886;2022-11-14T16:04:56;7.30;99.90
11573;DHT22;5842;52.426;4.886;2022-11-14T16:07:24;7.20;99.90
11573;DHT22;5842;52.426;4.886;2022-11-14T16:09:52;7.10;99.90
11573;DHT22;5842;52.426;4.886;2022-11-14T16:12:19;7.00;99.90
11573;DHT22;5842;52.426;4.886;2022-11-14T16:14:49;6.90;99.90
11573;DHT22;5842;52.426;4.886;2022-11-14T16:17:16;6.80;99.90
11573;DHT22;5842;52.426;4.886;2022-11-14T16:19:44;6.80;99.90
11573;DHT22;5842;52.426;4.886;2022-11-14T16:22:13;6.70;99.90
11573;DHT22;5842;52.426;4.886;2022-11-14T16:24:41;6.70;99.90
11573;DHT22;5842;52.426;4.886;2022-11-14T16:27:08;6.60;99.90
11573;DHT22;5842;52.426;4.886;2022-11-14T16:29:35;6.40;99.90
11573;DHT22;5842;52.426;4.886;2022-11-14T16:32:04;6.40;99.90
11573;DHT22;5842;52.426;4.886;2022-11-14T16:34:31;6.30;99.90
11573;DHT22;5842;52.426;4.886;2022-11-14T16:36:59;6.30;99.90
11573;DHT22;5842;52.426;4.886;2022-11-14T16:39:27;6.30;99.90
11573;DHT22;5842;52.426;4.886;2022-11-14T16:41:59;6.30;99.90
11573;DHT22;5842;52.426;4.886;2022-11-14T16:44:27;6.20;99.90
11573;DHT22;5842;52.426;4.886;2022-11-14T16:46:54;6.10;99.90
11573;DHT22;5842;52.426;4.886;2022-11-14T16:49:24;6.10;99.90
11573;DHT22;5842;52.426;4.886;2022-11-14T16:51:51;6.10;99.90
11573;DHT22;5842;52.426;4.886;2022-11-14T16:54:20;6.10;99.90
11573;DHT22;5842;52.426;4.886;2022-11-14T16:56:49;6.10;99.90
11573;DHT22;5842;52.426;4.886;2022-11-14T16:59:16;6.00;99.90
11573;DHT22;5842;52.426;4.886;2022-11-14T17:01:43;6.00;99.90
11573;DHT22;5842;52.426;4.886;2022-11-14T17:04:11;6.00;99.90
11573;DHT22;5842;52.426;4.886;2022-11-14T17:06:39;6.00;99.90
11573;DHT22;5842;52.426;4.886;2022-11-14T17:09:13;5.90;99.90
11573;DHT22;5842;52.426;4.886;2022-11-14T17:11:40;5.90;99.90
11573;DHT22;5842;52.426;4.886;2022-11-14T17:14:09;5.90;99.90
11573;DHT22;5842;52.426;4.886;2022-11-14T17:16:36;5.80;99.90
11573;DHT22;5842;52.426;4.886;2022-11-14T17:19:10;5.80;99.90
11573;DHT22;5842;52.426;4.886;2022-11-14T17:21:39;5.80;99.90